Time;durP1;ratioP1;P1;durP2;ratioP2;P2;SDS_P1;SDS_P2;PMS_P1;PMS_P2;Temp;Humidity;BMP_temperature;BMP_pressure;BME280_temperature;BME280_humidity;BME280_pressure;Samples;Min_cycle;Max_cycle;Signal;HPM_P1;HPM_P2
2024/01/13 00:01:38;;;;;;;;;;;-7.10;99.90;;;;;;5013246;28;20414;-71
2024/01/13 00:04:04;;;;;;;;;;;-7.00;99.90;;;;;;5016643;28;19925;-71
2024/01/13 00:06:31;;;;;;;;;;;-7.10;99.90;;;;;;5017278;28;19926;-71
2024/01/13 00:08:57;;;;;;;;;;;-6.90;99.90;;;;;;5016963;28;19933;-71
2024/01/13 00:11:24;;;;;;;;;;;-7.00;99.90;;;;;;5017064;28;19926;-71
2024/01/13 00:13:51;;;;;;;;;;;-7.10;99.90;;;;;;5041263;23;19936;-72
2024/01/13 00:16:17;;;;;;;;;;;-7.10;99.90;;;;;;4997937;28;19937;-71
2024/01/13 00:18:45;;;;;;;;;;;-7.10;99.90;;;;;;4997734;28;19926;-71
2024/01/13 00:21:12;;;;;;;;;;;-7.10;99.90;;;;;;4997769;28;19948;-72
2024/01/13 00:23:38;;;;;;;;;;;-7.10;99.90;;;;;;5011053;28;19925;-72
2024/01/13 00:26:05;;;;;;;;;;;-7.20;99.90;;;;;;5017377;28;19925;-72
2024/01/13 00:28:31;;;;;;;;;;;-7.20;99.90;;;;;;5017227;28;19937;-72
2024/01/13 00:30:58;;;;;;;;;;;-7.20;99.90;;;;;;5017164;28;20013;-72
2024/01/13 00:33:25;;;;;;;;;;;-7.30;99.90;;;;;;5016632;28;20379;-72
2024/01/13 00:35:52;;;;;;;;;;;-7.30;99.90;;;;;;5017372;28;19929;-71
2024/01/13 00:38:19;;;;;;;;;;;-7.30;99.90;;;;;;5017045;28;19933;-71
2024/01/13 00:40:45;;;;;;;;;;;-7.30;99.90;;;;;;5017339;28;19925;-71
2024/01/13 00:43:12;;;;;;;;;;;-7.30;99.90;;;;;;5016993;28;19926;-71
2024/01/13 00:45:39;;;;;;;;;;;-7.30;99.90;;;;;;5016526;28;20304;-72
2024/01/13 00:48:05;;;;;;;;;;;-7.30;99.90;;;;;;5016476;28;20390;-72
2024/01/13 09:08:04;;;;;;;;;;;-3.30;99.90;;;;;;4978909;28;20446;-75
2024/01/13 09:10:31;;;;;;;;;;;-3.20;99.90;;;;;;4979116;28;19961;-73
2024/01/13 09:12:57;;;;;;;;;;;-3.10;99.90;;;;;;4978567;28;19957;-77
2024/01/13 09:15:24;;;;;;;;;;;-3.00;99.90;;;;;;4980273;28;19981;-77
2024/01/13 09:17:51;;;;;;;;;;;-3.10;99.90;;;;;;4979983;28;20425;-74
2024/01/13 09:20:17;;;;;;;;;;;-3.20;99.90;;;;;;5000905;23;19969;-73
2024/01/13 09:22:44;;;;;;;;;;;-3.20;99.90;;;;;;4977551;28;19933;-73
2024/01/13 09:25:12;;;;;;;;;;;-3.10;99.90;;;;;;4977555;28;19930;-73
2024/01/13 09:27:38;;;;;;;;;;;-3.00;99.90;;;;;;4978130;28;19926;-72
2024/01/13 09:30:06;;;;;;;;;;;-3.10;99.90;;;;;;4977723;28;19933;-73
2024/01/13 09:32:32;;;;;;;;;;;-3.30;99.90;;;;;;4977298;28;19926;-73
2024/01/13 09:34:59;;;;;;;;;;;-3.40;99.90;;;;;;4979259;28;19968;-73
2024/01/13 09:37:26;;;;;;;;;;;-3.60;99.90;;;;;;4979313;28;19980;-72
2024/01/13 09:39:53;;;;;;;;;;;-3.70;99.90;;;;;;4979317;28;20387;-71
2024/01/13 09:42:28;;;;;;;;;;;-3.80;99.90;;;;;;4979449;28;19926;-71
2024/01/13 09:44:54;;;;;;;;;;;-4.00;99.90;;;;;;4979664;28;19932;-71
2024/01/13 09:47:22;;;;;;;;;;;-4.20;99.90;;;;;;4979723;28;19930;-72
2024/01/13 09:49:51;;;;;;;;;;;-4.30;99.90;;;;;;4979610;28;19926;-72
2024/01/13 09:52:18;;;;;;;;;;;-4.30;99.90;;;;;;4979867;28;20396;-72
2024/01/13 09:54:48;;;;;;;;;;;-4.30;99.90;;;;;;4979203;28;19926;-72
2024/01/13 09:57:14;;;;;;;;;;;-4.30;99.90;;;;;;4980472;28;19926;-71
2024/01/13 09:59:42;;;;;;;;;;;-4.30;99.90;;;;;;4983424;28;19989;-72
2024/01/13 10:02:10;;;;;;;;;;;-4.30;99.90;;;;;;4979928;28;19926;-71
2024/01/13 10:04:37;;;;;;;;;;;-4.30;99.90;;;;;;4978441;28;19958;-71
2024/01/13 10:07:05;;;;;;;;;;;-4.40;99.90;;;;;;4978601;28;19932;-72
2024/01/13 10:09:32;;;;;;;;;;;-4.40;99.90;;;;;;4978833;28;19926;-73
2024/01/13 10:11:58;;;;;;;;;;;-4.50;99.90;;;;;;4977675;28;19926;-73
2024/01/13 10:14:25;;;;;;;;;;;-4.50;99.90;;;;;;4978366;28;20271;-72
2024/01/13 10:16:53;;;;;;;;;;;-4.70;99.90;;;;;;4979112;28;19930;-72
2024/01/13 10:19:24;;;;;;;;;;;-4.30;99.90;;;;;;4978888;28;19989;-72
2024/01/13 10:21:55;;;;;;;;;;;-4.30;99.90;;;;;;4978994;28;19938;-72
2024/01/13 10:24:25;;;;;;;;;;;-4.20;99.90;;;;;;4979220;28;19972;-72
2024/01/13 10:26:52;;;;;;;;;;;-4.30;99.90;;;;;;4978335;28;20002;-73
2024/01/13 10:29:19;;;;;;;;;;;-4.30;99.90;;;;;;4978584;28;19930;-72
2024/01/13 10:31:46;;;;;;;;;;;-4.10;99.90;;;;;;4978186;28;19926;-72
2024/01/13 10:34:17;;;;;;;;;;;-4.10;99.90;;;;;;4978519;28;19926;-72
2024/01/13 10:36:44;;;;;;;;;;;-4.00;99.90;;;;;;4975846;28;19926;-73
2024/01/13 10:39:10;;;;;;;;;;;-3.90;99.90;;;;;;4975778;28;19926;-72
2024/01/13 10:41:38;;;;;;;;;;;-3.70;99.90;;;;;;4975807;28;19933;-73
2024/01/13 10:44:07;;;;;;;;;;;-3.50;99.90;;;;;;4976388;28;19934;-72
2024/01/13 10:46:34;;;;;;;;;;;-3.40;99.90;;;;;;4974903;28;19974;-73
2024/01/13 10:49:03;;;;;;;;;;;-3.40;99.90;;;;;;4975404;28;19938;-73
2024/01/13 10:51:33;;;;;;;;;;;-3.30;99.90;;;;;;4975861;28;19970;-73
2024/01/13 10:54:00;;;;;;;;;;;-3.30;99.90;;;;;;4975900;28;19926;-73
2024/01/13 10:56:28;;;;;;;;;;;-3.20;99.90;;;;;;4975354;28;20300;-73
2024/01/13 10:58:55;;;;;;;;;;;-3.10;99.90;;;;;;4975510;28;20290;-73
2024/01/13 11:01:21;;;;;;;;;;;-3.10;99.90;;;;;;4975538;28;19930;-71
2024/01/13 11:03:50;;;;;;;;;;;-3.00;99.90;;;;;;4976005;28;19948;-72
2024/01/13 11:06:17;;;;;;;;;;;-3.00;99.90;;;;;;4976020;28;19926;-72
2024/01/13 11:08:45;;;;;;;;;;;-3.10;99.90;;;;;;4975510;28;20379;-72
2024/01/13 11:11:13;;;;;;;;;;;-3.10;99.90;;;;;;4975838;28;19930;-70
2024/01/13 11:13:42;;;;;;;;;;;-3.10;99.90;;;;;;4975643;28;19926;-71
2024/01/13 11:16:10;;;;;;;;;;;-3.20;99.90;;;;;;4975682;28;19932;-71
2024/01/13 11:18:37;;;;;;;;;;;-3.30;99.90;;;;;;4976902;28;19933;-71
2024/01/13 11:21:04;;;;;;;;;;;-3.30;99.90;;;;;;4976243;28;19930;-72
2024/01/13 11:23:41;;;;;;;;;;;-3.30;99.90;;;;;;4975237;28;20018;-73
2024/01/13 11:26:11;;;;;;;;;;;-3.30;99.90;;;;;;4975085;28;19926;-73
2024/01/13 11:28:44;;;;;;;;;;;-3.30;99.90;;;;;;4974833;28;20439;-73
2024/01/13 11:31:12;;;;;;;;;;;-3.30;99.90;;;;;;4974939;28;19926;-73
2024/01/13 11:33:38;;;;;;;;;;;-3.50;99.90;;;;;;4975014;28;19926;-73
2024/01/13 11:36:06;;;;;;;;;;;-3.60;99.90;;;;;;4975125;28;19926;-73
2024/01/13 11:38:33;;;;;;;;;;;-3.60;99.90;;;;;;4975676;28;20387;-71
2024/01/13 11:41:00;;;;;;;;;;;-3.70;99.90;;;;;;4975703;28;19961;-71
2024/01/13 11:43:28;;;;;;;;;;;-3.80;99.90;;;;;;4975892;28;19933;-71
2024/01/13 11:45:55;;;;;;;;;;;-3.70;99.90;;;;;;4976520;28;19926;-72
2024/01/13 11:48:41;;;;;;;;;;;-3.90;99.90;;;;;;4975931;28;19926;-74
2024/01/13 11:51:10;;;;;;;;;;;-3.90;99.90;;;;;;4975840;28;19927;-73
2024/01/13 11:53:39;;;;;;;;;;;-3.90;99.90;;;;;;4975620;28;20036;-73
2024/01/13 11:56:07;;;;;;;;;;;-4.00;99.90;;;;;;4977585;28;19926;-73
2024/01/13 11:58:36;;;;;;;;;;;-3.90;99.90;;;;;;4980571;28;19930;-73
2024/01/13 12:01:02;;;;;;;;;;;-3.90;99.90;;;;;;4983305;28;19937;-73
2024/01/13 12:03:29;;;;;;;;;;;-3.90;99.90;;;;;;4983656;28;19932;-73
2024/01/13 12:05:56;;;;;;;;;;;-3.90;99.90;;;;;;4982386;28;19930;-73
2024/01/13 12:08:25;;;;;;;;;;;-3.90;99.90;;;;;;4981231;28;19937;-72
2024/01/13 12:10:53;;;;;;;;;;;-3.90;99.90;;;;;;4988128;28;19917;-72
2024/01/13 12:13:20;;;;;;;;;;;-3.90;99.90;;;;;;4999134;28;19932;-72
2024/01/13 12:15:48;;;;;;;;;;;-3.90;99.90;;;;;;4990992;28;19933;-73
2024/01/13 12:18:20;;;;;;;;;;;-3.80;99.90;;;;;;4980507;28;20341;-72
2024/01/13 12:20:47;;;;;;;;;;;-3.80;99.90;;;;;;4980315;28;19932;-72
2024/01/13 12:23:14;;;;;;;;;;;-3.80;99.90;;;;;;4981314;28;19926;-73
2024/01/13 12:25:41;;;;;;;;;;;-3.80;99.90;;;;;;4980700;28;19926;-73
2024/01/13 12:28:07;;;;;;;;;;;-3.60;99.90;;;;;;4981111;28;19926;-71
2024/01/13 12:30:35;;;;;;;;;;;-3.70;99.90;;;;;;4980580;28;20295;-71
2024/01/13 12:33:03;;;;;;;;;;;-3.70;99.90;;;;;;4980961;28;19932;-72
2024/01/13 12:35:29;;;;;;;;;;;-3.70;99.90;;;;;;4979475;28;19933;-72
2024/01/13 12:37:56;;;;;;;;;;;-3.80;99.90;;;;;;4979010;28;20391;-72
2024/01/13 12:40:22;;;;;;;;;;;-3.80;99.90;;;;;;4979504;28;19934;-71
2024/01/13 12:42:49;;;;;;;;;;;-3.80;99.90;;;;;;4979849;28;19977;-72
2024/01/13 12:45:17;;;;;;;;;;;-3.80;99.90;;;;;;4979797;28;19944;-71
2024/01/13 12:47:44;;;;;;;;;;;-3.80;99.90;;;;;;4978246;28;20388;-72
2024/01/13 12:50:13;;;;;;;;;;;-3.80;99.90;;;;;;4978671;28;19926;-71
2024/01/13 12:52:40;;;;;;;;;;;-3.80;99.90;;;;;;4978441;28;19926;-72
2024/01/13 12:55:07;;;;;;;;;;;-3.80;99.90;;;;;;4977883;28;20021;-71
2024/01/13 12:57:34;;;;;;;;;;;-3.90;99.90;;;;;;4978010;28;19973;-72
2024/01/13 13:00:01;;;;;;;;;;;-3.90;99.90;;;;;;4977944;28;19926;-72
2024/01/13 13:02:27;;;;;;;;;;;-3.90;99.90;;;;;;4979281;28;19926;-71
2024/01/13 13:04:54;;;;;;;;;;;-3.90;99.90;;;;;;4978763;28;19925;-72
2024/01/13 13:07:24;;;;;;;;;;;-3.90;99.90;;;;;;4977430;28;19926;-72
2024/01/13 13:09:51;;;;;;;;;;;-3.90;99.90;;;;;;4977610;28;19926;-72
2024/01/13 13:12:18;;;;;;;;;;;-3.90;99.90;;;;;;4979209;28;19937;-72
2024/01/13 13:14:45;;;;;;;;;;;-3.90;99.90;;;;;;4980198;28;19926;-72
2024/01/13 13:17:11;;;;;;;;;;;-3.90;99.90;;;;;;4980080;28;20335;-73
2024/01/13 13:19:38;;;;;;;;;;;-3.90;99.90;;;;;;4979121;28;19933;-73
2024/01/13 13:22:05;;;;;;;;;;;-4.00;99.90;;;;;;4977389;28;19980;-73
2024/01/13 13:24:33;;;;;;;;;;;-4.00;99.90;;;;;;4977019;28;19926;-74
2024/01/13 13:26:59;;;;;;;;;;;-4.00;99.90;;;;;;4976983;28;19933;-73
2024/01/13 13:29:26;;;;;;;;;;;-4.00;99.90;;;;;;4977661;28;19933;-74
2024/01/13 13:31:53;;;;;;;;;;;-4.00;99.90;;;;;;4977117;28;19973;-74
2024/01/13 13:34:20;;;;;;;;;;;-4.00;99.90;;;;;;4977897;28;20020;-74
2024/01/13 13:36:46;;;;;;;;;;;-4.00;99.90;;;;;;4977998;28;19926;-73
2024/01/13 13:39:16;;;;;;;;;;;-4.00;99.90;;;;;;4977912;28;19933;-73
2024/01/13 13:41:44;;;;;;;;;;;-4.00;99.90;;;;;;4978336;28;19926;-72
2024/01/13 13:44:10;;;;;;;;;;;-4.00;99.90;;;;;;4977755;28;19933;-72
2024/01/13 13:46:37;;;;;;;;;;;-4.00;99.90;;;;;;4979402;28;19933;-72
2024/01/13 13:49:04;;;;;;;;;;;-4.00;99.90;;;;;;4978926;28;19930;-72
2024/01/13 13:51:31;;;;;;;;;;;-4.10;99.90;;;;;;4978972;28;19926;-72
2024/01/13 13:53:58;;;;;;;;;;;-4.10;99.90;;;;;;4978857;28;19930;-73
2024/01/13 13:56:25;;;;;;;;;;;-4.10;99.90;;;;;;4977711;28;19926;-72
2024/01/13 13:58:53;;;;;;;;;;;-4.20;99.90;;;;;;4978766;28;19973;-72
2024/01/13 14:01:19;;;;;;;;;;;-4.20;99.90;;;;;;4978000;28;19962;-71
2024/01/13 14:03:47;;;;;;;;;;;-4.20;99.90;;;;;;4979726;28;19930;-71
2024/01/13 14:06:13;;;;;;;;;;;-4.30;99.90;;;;;;4979691;28;19926;-72
2024/01/13 14:08:40;;;;;;;;;;;-4.20;99.90;;;;;;4979778;28;19926;-72
2024/01/13 14:11:07;;;;;;;;;;;-4.30;99.90;;;;;;4978988;28;19926;-72
2024/01/13 14:13:34;;;;;;;;;;;-4.30;99.90;;;;;;4978544;28;19926;-72
2024/01/13 14:16:02;;;;;;;;;;;-4.40;99.90;;;;;;4978762;28;20451;-72
2024/01/13 14:18:33;;;;;;;;;;;-4.40;99.90;;;;;;4977626;28;19927;-73
2024/01/13 14:21:03;;;;;;;;;;;-4.40;99.90;;;;;;4976471;28;19933;-72
2024/01/13 14:23:30;;;;;;;;;;;-4.40;99.90;;;;;;4978662;28;19926;-72
2024/01/13 14:25:57;;;;;;;;;;;-4.50;99.90;;;;;;4979608;28;19981;-72
2024/01/13 14:28:23;;;;;;;;;;;-4.50;99.90;;;;;;4978590;28;19926;-73
2024/01/13 14:30:50;;;;;;;;;;;-4.50;99.90;;;;;;4977474;28;20013;-72
2024/01/13 14:33:19;;;;;;;;;;;-4.60;99.90;;;;;;4977402;28;19933;-71
2024/01/13 14:35:45;;;;;;;;;;;-4.60;99.90;;;;;;4977038;28;19930;-72
2024/01/13 14:38:12;;;;;;;;;;;-4.60;99.90;;;;;;4976346;28;20328;-72
2024/01/13 14:40:39;;;;;;;;;;;-4.70;99.90;;;;;;4977681;28;19926;-73
2024/01/13 14:43:05;;;;;;;;;;;-4.70;99.90;;;;;;4980503;28;19930;-73
2024/01/13 14:45:32;;;;;;;;;;;-4.70;99.90;;;;;;4976145;28;19933;-73
2024/01/13 14:47:58;;;;;;;;;;;-4.70;99.90;;;;;;4976010;28;19928;-74
2024/01/13 14:50:27;;;;;;;;;;;-4.70;99.90;;;;;;4976014;28;19926;-73
2024/01/13 14:52:54;;;;;;;;;;;-4.70;99.90;;;;;;4975767;28;19933;-72
2024/01/13 14:55:21;;;;;;;;;;;-4.70;99.90;;;;;;4975936;28;19926;-72
2024/01/13 14:57:47;;;;;;;;;;;-4.70;99.90;;;;;;4975700;28;19933;-72
2024/01/13 15:00:14;;;;;;;;;;;-4.70;99.90;;;;;;4975855;28;20002;-72
2024/01/13 15:02:41;;;;;;;;;;;-4.80;99.90;;;;;;4977046;28;19926;-73
2024/01/13 15:05:08;;;;;;;;;;;-4.80;99.90;;;;;;4976812;28;19926;-72
2024/01/13 15:07:36;;;;;;;;;;;-4.80;99.90;;;;;;4975827;28;20430;-74
2024/01/13 15:10:03;;;;;;;;;;;-4.80;99.90;;;;;;4976185;28;19926;-74
2024/01/13 15:12:30;;;;;;;;;;;-4.80;99.90;;;;;;4976512;28;19926;-73
2024/01/13 15:14:57;;;;;;;;;;;-4.80;99.90;;;;;;4976398;28;19926;-74
2024/01/13 15:17:23;;;;;;;;;;;-4.70;99.90;;;;;;4976527;28;19932;-73
2024/01/13 15:19:50;;;;;;;;;;;-4.70;99.90;;;;;;4976090;28;19937;-74
2024/01/13 15:22:16;;;;;;;;;;;-4.70;99.90;;;;;;4975446;28;19930;-74
2024/01/13 15:24:44;;;;;;;;;;;-4.80;99.90;;;;;;4975371;28;19933;-74
2024/01/13 15:27:11;;;;;;;;;;;-4.80;99.90;;;;;;4975875;28;19926;-74
2024/01/13 15:29:37;;;;;;;;;;;-4.80;99.90;;;;;;4976523;28;19926;-74
2024/01/13 15:32:04;;;;;;;;;;;-4.80;99.90;;;;;;4975790;28;19927;-74
2024/01/13 15:34:31;;;;;;;;;;;-4.80;99.90;;;;;;4977911;28;19930;-74
2024/01/13 15:36:57;;;;;;;;;;;-4.90;99.90;;;;;;4979771;28;20265;-73
2024/01/13 15:39:24;;;;;;;;;;;-4.90;99.90;;;;;;4980356;28;19933;-74
2024/01/13 15:41:53;;;;;;;;;;;-4.90;99.90;;;;;;4980302;28;20280;-74
2024/01/13 15:44:20;;;;;;;;;;;-4.90;99.90;;;;;;4981442;28;19926;-73
2024/01/13 15:46:47;;;;;;;;;;;-5.00;99.90;;;;;;4979469;28;20435;-74
2024/01/13 15:49:13;;;;;;;;;;;-5.00;99.90;;;;;;4979706;28;19930;-73
2024/01/13 15:51:40;;;;;;;;;;;-5.00;99.90;;;;;;4979907;28;19934;-74
2024/01/13 15:54:07;;;;;;;;;;;-5.00;99.90;;;;;;4979525;28;20384;-76
2024/01/13 15:56:34;;;;;;;;;;;-5.00;99.90;;;;;;4979595;28;20348;-73
2024/01/13 15:59:02;;;;;;;;;;;-5.00;99.90;;;;;;4980140;28;19927;-72
2024/01/13 16:01:28;;;;;;;;;;;-5.10;99.90;;;;;;4979142;28;20410;-73
2024/01/13 16:03:55;;;;;;;;;;;-5.10;99.90;;;;;;4978265;28;20304;-73
2024/01/13 16:06:22;;;;;;;;;;;-5.10;99.90;;;;;;4978453;28;20302;-73
2024/01/13 16:08:48;;;;;;;;;;;-5.10;99.90;;;;;;4978343;28;19966;-73
2024/01/13 16:11:15;;;;;;;;;;;-5.10;99.90;;;;;;4979229;28;19926;-73
2024/01/13 16:13:55;;;;;;;;;;;-5.10;99.90;;;;;;4978608;28;19932;-74
2024/01/13 16:16:23;;;;;;;;;;;-5.10;99.90;;;;;;4980062;28;19977;-73
2024/01/13 16:18:50;;;;;;;;;;;-5.10;99.90;;;;;;4980939;28;19962;-74
2024/01/13 16:21:16;;;;;;;;;;;-5.10;99.90;;;;;;4980454;28;19966;-73
2024/01/13 16:23:43;;;;;;;;;;;-5.00;99.90;;;;;;4981476;28;20288;-74
2024/01/13 16:26:10;;;;;;;;;;;-5.00;99.90;;;;;;4980206;28;20399;-73
2024/01/13 16:28:37;;;;;;;;;;;-5.10;99.90;;;;;;4980283;28;19930;-74
2024/01/13 16:31:04;;;;;;;;;;;-5.00;99.90;;;;;;4980004;28;19926;-73
2024/01/13 16:33:32;;;;;;;;;;;-5.00;99.90;;;;;;4980333;28;19933;-73
2024/01/13 16:35:58;;;;;;;;;;;-5.00;99.90;;;;;;4978964;28;19930;-73
2024/01/13 16:38:26;;;;;;;;;;;-5.00;99.90;;;;;;4979110;28;19947;-73
2024/01/13 16:40:52;;;;;;;;;;;-5.00;99.90;;;;;;4979583;28;19973;-73
2024/01/13 16:43:19;;;;;;;;;;;-5.00;99.90;;;;;;4978331;28;20304;-73
2024/01/13 16:45:46;;;;;;;;;;;-5.10;99.90;;;;;;4978358;28;19930;-74
2024/01/13 16:48:13;;;;;;;;;;;-5.10;99.90;;;;;;4978726;28;19985;-72
2024/01/13 16:50:41;;;;;;;;;;;-5.10;99.90;;;;;;4978238;28;19926;-73
2024/01/13 16:53:07;;;;;;;;;;;-5.10;99.90;;;;;;4978417;28;20422;-72
2024/01/13 16:55:34;;;;;;;;;;;-5.10;99.90;;;;;;4978711;28;19933;-72
2024/01/13 16:58:00;;;;;;;;;;;-5.10;99.90;;;;;;4978584;28;19926;-71
2024/01/13 17:00:27;;;;;;;;;;;-5.10;99.90;;;;;;4978062;28;20002;-71
2024/01/13 17:02:54;;;;;;;;;;;-5.10;99.90;;;;;;4978453;28;20346;-72
2024/01/13 17:05:22;;;;;;;;;;;-5.10;99.90;;;;;;4978430;28;19926;-72
2024/01/13 17:07:50;;;;;;;;;;;-5.20;99.90;;;;;;4978255;28;19926;-72
2024/01/13 17:10:17;;;;;;;;;;;-5.20;99.90;;;;;;4978154;28;19926;-71
2024/01/13 17:12:43;;;;;;;;;;;-5.30;99.90;;;;;;4977524;28;19926;-71
2024/01/13 17:15:10;;;;;;;;;;;-5.30;99.90;;;;;;4977521;28;19926;-72
2024/01/13 17:17:37;;;;;;;;;;;-5.30;99.90;;;;;;4977681;28;19930;-72
2024/01/13 17:20:09;;;;;;;;;;;-5.40;99.90;;;;;;4977849;28;19926;-72
2024/01/13 17:22:36;;;;;;;;;;;-5.40;99.90;;;;;;4977608;28;19930;-72
2024/01/13 17:25:04;;;;;;;;;;;-5.50;99.90;;;;;;4977690;28;19926;-73
2024/01/13 17:27:31;;;;;;;;;;;-5.60;99.90;;;;;;4977884;28;19969;-73
2024/01/13 17:29:58;;;;;;;;;;;-5.70;99.90;;;;;;4977012;28;20393;-73
2024/01/13 17:32:25;;;;;;;;;;;-5.70;99.90;;;;;;4977328;28;19926;-73
2024/01/13 17:34:52;;;;;;;;;;;-5.80;99.90;;;;;;4977425;28;19977;-71
2024/01/13 17:37:19;;;;;;;;;;;-5.80;99.90;;;;;;4976954;28;19949;-73
2024/01/13 17:39:47;;;;;;;;;;;-5.90;99.90;;;;;;4977081;28;19965;-71
2024/01/13 17:42:15;;;;;;;;;;;-5.90;99.90;;;;;;4977153;28;19927;-71
2024/01/13 17:44:42;;;;;;;;;;;-5.90;99.90;;;;;;4976573;28;19926;-71
2024/01/13 17:47:08;;;;;;;;;;;-5.90;99.90;;;;;;4976952;28;19926;-71
2024/01/13 17:49:35;;;;;;;;;;;-6.00;99.90;;;;;;4976453;28;19933;-71
2024/01/13 17:52:01;;;;;;;;;;;-6.00;99.90;;;;;;4977301;28;19926;-72
2024/01/13 17:54:28;;;;;;;;;;;-6.00;99.90;;;;;;4977439;28;19926;-73
2024/01/13 17:56:54;;;;;;;;;;;-6.00;99.90;;;;;;4975605;28;19926;-73
2024/01/13 17:59:22;;;;;;;;;;;-6.00;99.90;;;;;;4976575;28;19938;-73
2024/01/13 18:01:49;;;;;;;;;;;-5.90;99.90;;;;;;4976059;28;20319;-73
2024/01/13 18:04:15;;;;;;;;;;;-6.00;99.90;;;;;;4976234;28;20302;-73
2024/01/13 18:06:42;;;;;;;;;;;-6.00;99.90;;;;;;4976353;28;19948;-74
2024/01/13 18:09:10;;;;;;;;;;;-6.10;99.90;;;;;;4976281;28;19930;-73
2024/01/13 18:11:37;;;;;;;;;;;-6.10;99.90;;;;;;4976159;28;19937;-73
2024/01/13 18:14:03;;;;;;;;;;;-6.10;99.90;;;;;;4976163;28;19930;-73
2024/01/13 18:16:31;;;;;;;;;;;-6.10;99.90;;;;;;4976298;28;19930;-73
2024/01/13 18:18:58;;;;;;;;;;;-6.10;99.90;;;;;;4976147;28;19926;-73
2024/01/13 18:21:28;;;;;;;;;;;-6.10;99.90;;;;;;4975855;28;19926;-73
2024/01/13 18:23:55;;;;;;;;;;;-6.20;99.90;;;;;;4976797;28;19957;-73
2024/01/13 18:26:21;;;;;;;;;;;-6.20;99.90;;;;;;4976203;28;19926;-73
2024/01/13 18:28:48;;;;;;;;;;;-6.30;99.90;;;;;;4975934;28;19926;-73
2024/01/13 18:31:14;;;;;;;;;;;-6.40;99.90;;;;;;4975793;28;20002;-74
2024/01/13 18:33:43;;;;;;;;;;;-6.40;99.90;;;;;;4975940;28;19926;-73
2024/01/13 18:36:10;;;;;;;;;;;-6.40;99.90;;;;;;4976026;28;19926;-74
2024/01/13 18:38:36;;;;;;;;;;;-6.60;99.90;;;;;;4975638;28;19937;-74
2024/01/13 18:41:03;;;;;;;;;;;-6.60;99.90;;;;;;4975623;28;19926;-73
2024/01/13 18:43:29;;;;;;;;;;;-6.70;99.90;;;;;;4976072;28;19926;-73
2024/01/13 18:45:56;;;;;;;;;;;-6.80;99.90;;;;;;4976607;28;19926;-73
2024/01/13 18:48:23;;;;;;;;;;;-6.90;99.90;;;;;;4977991;28;19926;-73
2024/01/13 18:50:51;;;;;;;;;;;-7.00;99.90;;;;;;4977086;28;20375;-73
2024/01/13 18:53:18;;;;;;;;;;;-7.10;99.90;;;;;;4977586;28;19926;-74
2024/01/13 18:55:45;;;;;;;;;;;-7.00;99.90;;;;;;4977628;28;19926;-73
2024/01/13 18:58:12;;;;;;;;;;;-7.00;99.90;;;;;;4977375;28;19977;-73
2024/01/13 19:00:38;;;;;;;;;;;-7.20;99.90;;;;;;4977751;28;19926;-73
2024/01/13 19:03:05;;;;;;;;;;;-7.20;99.90;;;;;;4977737;28;19933;-73
2024/01/13 19:05:32;;;;;;;;;;;-7.20;99.90;;;;;;4977836;28;20413;-73
2024/01/13 19:08:00;;;;;;;;;;;-7.20;99.90;;;;;;4979321;28;20395;-73
2024/01/13 19:10:27;;;;;;;;;;;-7.40;99.90;;;;;;4981815;28;19926;-73
2024/01/13 19:12:55;;;;;;;;;;;-7.40;99.90;;;;;;4981765;28;19926;-73
2024/01/13 19:15:21;;;;;;;;;;;-7.30;99.90;;;;;;4981639;28;20321;-73
2024/01/13 19:17:48;;;;;;;;;;;-7.50;99.90;;;;;;4982474;28;19949;-74
2024/01/13 19:20:15;;;;;;;;;;;-7.50;99.90;;;;;;4982099;28;20431;-73
2024/01/13 19:22:41;;;;;;;;;;;-7.50;99.90;;;;;;4982038;28;19934;-74
2024/01/13 19:25:09;;;;;;;;;;;-7.50;99.90;;;;;;4981922;28;19926;-73
2024/01/13 19:27:39;;;;;;;;;;;-7.60;99.90;;;;;;4981445;28;19973;-72
2024/01/13 19:30:06;;;;;;;;;;;-7.60;99.90;;;;;;4982012;28;19984;-73
2024/01/13 19:32:32;;;;;;;;;;;-7.60;99.90;;;;;;4981387;28;19934;-73
2024/01/13 19:34:59;;;;;;;;;;;-7.60;99.90;;;;;;4981501;28;19933;-73
2024/01/13 19:37:26;;;;;;;;;;;-7.70;99.90;;;;;;4982321;28;19926;-73
2024/01/13 19:39:52;;;;;;;;;;;-7.70;99.90;;;;;;4981037;28;19933;-73
2024/01/13 19:42:20;;;;;;;;;;;-7.70;99.90;;;;;;4981727;28;19937;-73
2024/01/13 19:44:47;;;;;;;;;;;-7.70;99.90;;;;;;4981366;28;20397;-73
2024/01/13 19:47:13;;;;;;;;;;;-7.80;99.90;;;;;;4981493;28;19926;-73
2024/01/13 19:49:40;;;;;;;;;;;-7.80;99.90;;;;;;4981286;28;19926;-72
2024/01/13 19:52:07;;;;;;;;;;;-7.80;99.90;;;;;;4981173;28;19926;-73
2024/01/13 19:54:33;;;;;;;;;;;-7.70;99.90;;;;;;4981411;28;19926;-73
2024/01/13 19:57:00;;;;;;;;;;;-7.70;99.90;;;;;;4980984;28;19926;-73
2024/01/13 19:59:28;;;;;;;;;;;-7.70;99.90;;;;;;4981012;28;20392;-72
2024/01/13 20:01:55;;;;;;;;;;;-7.70;99.90;;;;;;4981784;28;19961;-74
2024/01/13 20:04:22;;;;;;;;;;;-7.60;99.90;;;;;;4981187;28;19933;-73
2024/01/13 20:06:49;;;;;;;;;;;-7.70;99.90;;;;;;4980310;28;20005;-73
2024/01/13 20:09:16;;;;;;;;;;;-7.70;99.90;;;;;;4980525;28;19926;-73
2024/01/13 20:11:43;;;;;;;;;;;-7.60;99.90;;;;;;4980813;28;19927;-73
2024/01/13 20:14:09;;;;;;;;;;;-7.70;99.90;;;;;;4981434;28;19926;-73
2024/01/13 20:16:37;;;;;;;;;;;-7.70;99.90;;;;;;4981880;28;19933;-73
2024/01/13 20:19:05;;;;;;;;;;;-7.70;99.90;;;;;;4980327;28;19926;-72
2024/01/13 20:21:32;;;;;;;;;;;-7.70;99.90;;;;;;4980578;28;19933;-73
2024/01/13 20:23:59;;;;;;;;;;;-7.70;99.90;;;;;;4980168;28;20293;-73
2024/01/13 20:26:25;;;;;;;;;;;-7.80;99.90;;;;;;4980752;28;20010;-73
2024/01/13 20:28:52;;;;;;;;;;;-7.80;99.90;;;;;;4980861;28;19926;-73
2024/01/13 20:31:19;;;;;;;;;;;-7.80;99.90;;;;;;4980405;28;19937;-73
2024/01/13 20:33:47;;;;;;;;;;;-7.90;99.90;;;;;;4981226;28;19969;-72
2024/01/13 20:36:14;;;;;;;;;;;-7.90;99.90;;;;;;4980054;28;20407;-73
2024/01/13 20:38:40;;;;;;;;;;;-7.90;99.90;;;;;;4980317;28;19926;-72
2024/01/13 20:41:07;;;;;;;;;;;-7.90;99.90;;;;;;4979836;28;19926;-72
2024/01/13 20:43:34;;;;;;;;;;;-8.00;99.90;;;;;;4980746;28;20402;-73
2024/01/13 20:46:01;;;;;;;;;;;-8.10;99.90;;;;;;4980310;28;19984;-73
2024/01/13 20:48:27;;;;;;;;;;;-8.10;99.90;;;;;;4980518;28;19937;-73
2024/01/13 20:50:56;;;;;;;;;;;-8.10;99.90;;;;;;4980273;28;19927;-73
2024/01/13 20:53:22;;;;;;;;;;;-8.00;99.90;;;;;;4980287;28;20029;-73
2024/01/13 20:55:49;;;;;;;;;;;-8.20;99.90;;;;;;4980146;28;19933;-73
2024/01/13 20:58:16;;;;;;;;;;;-8.20;99.90;;;;;;4980040;28;19930;-72
2024/01/13 21:00:43;;;;;;;;;;;-8.30;99.90;;;;;;4980331;28;19949;-73
2024/01/13 21:03:13;;;;;;;;;;;-8.40;99.90;;;;;;4979531;28;19926;-73
2024/01/13 21:05:39;;;;;;;;;;;-8.40;99.90;;;;;;4979806;28;19966;-73
2024/01/13 21:08:07;;;;;;;;;;;-8.40;99.90;;;;;;4980042;28;19933;-73
2024/01/13 21:10:34;;;;;;;;;;;-8.40;99.90;;;;;;4979443;28;19933;-73
2024/01/13 21:13:01;;;;;;;;;;;-8.50;99.90;;;;;;4979966;28;20295;-73
2024/01/13 21:15:27;;;;;;;;;;;-8.50;99.90;;;;;;4978600;28;19948;-73
2024/01/13 21:17:56;;;;;;;;;;;-8.50;99.90;;;;;;4978127;28;20265;-73
2024/01/13 21:20:24;;;;;;;;;;;-8.50;99.90;;;;;;4977991;28;20283;-73
2024/01/13 21:22:51;;;;;;;;;;;-8.60;99.90;;;;;;4978092;28;19958;-72
2024/01/13 21:25:19;;;;;;;;;;;-8.60;99.90;;;;;;4978863;28;19942;-72
2024/01/13 21:27:47;;;;;;;;;;;-8.60;99.90;;;;;;4978485;28;19932;-73
2024/01/13 21:30:15;;;;;;;;;;;-8.60;99.90;;;;;;4977454;28;19933;-73
2024/01/13 21:32:42;;;;;;;;;;;-8.60;99.90;;;;;;4976682;28;19976;-73
2024/01/13 21:35:10;;;;;;;;;;;-8.60;99.90;;;;;;4976725;28;19930;-73
2024/01/13 21:37:37;;;;;;;;;;;-8.60;99.90;;;;;;4975999;28;19980;-73
2024/01/13 21:40:05;;;;;;;;;;;-8.60;99.90;;;;;;4976955;28;19926;-73
2024/01/13 21:42:33;;;;;;;;;;;-8.70;99.90;;;;;;4976685;28;19928;-73
2024/01/13 21:45:00;;;;;;;;;;;-8.70;99.90;;;;;;4976727;28;19932;-73
2024/01/13 21:47:26;;;;;;;;;;;-8.70;99.90;;;;;;4976691;28;19926;-73
2024/01/13 21:49:53;;;;;;;;;;;-8.60;99.90;;;;;;4976534;28;19926;-73
2024/01/13 21:52:20;;;;;;;;;;;-8.70;99.90;;;;;;4975968;28;20022;-73
2024/01/13 21:54:46;;;;;;;;;;;-8.70;99.90;;;;;;4976546;28;19926;-73
2024/01/13 21:57:13;;;;;;;;;;;-8.80;99.90;;;;;;4976300;28;19927;-73
2024/01/13 21:59:43;;;;;;;;;;;-8.70;99.90;;;;;;4976105;28;19949;-73
2024/01/13 22:02:10;;;;;;;;;;;-8.70;99.90;;;;;;4976232;28;19926;-73
2024/01/13 22:04:37;;;;;;;;;;;-8.70;99.90;;;;;;4975946;28;20388;-73
2024/01/13 22:07:04;;;;;;;;;;;-8.60;99.90;;;;;;4976189;28;19926;-73
2024/01/13 22:09:32;;;;;;;;;;;-8.60;99.90;;;;;;4976376;28;19926;-73
2024/01/13 22:11:59;;;;;;;;;;;-8.50;99.90;;;;;;4976218;28;19930;-73
2024/01/13 22:14:25;;;;;;;;;;;-8.40;99.90;;;;;;4976204;28;19926;-73
2024/01/13 22:16:53;;;;;;;;;;;-8.30;99.90;;;;;;4976121;28;19933;-73
2024/01/13 22:19:20;;;;;;;;;;;-8.40;99.90;;;;;;4975656;28;20384;-73
2024/01/13 22:21:47;;;;;;;;;;;-8.40;99.90;;;;;;4975778;28;19926;-75
2024/01/13 22:24:13;;;;;;;;;;;-8.40;99.90;;;;;;4976420;28;19926;-73
2024/01/13 22:26:40;;;;;;;;;;;-8.30;99.90;;;;;;4976353;28;20017;-71
2024/01/13 22:29:07;;;;;;;;;;;-8.20;99.90;;;;;;4976093;28;19973;-72
2024/01/13 22:31:33;;;;;;;;;;;-8.20;99.90;;;;;;4975830;28;19980;-72
2024/01/13 22:34:02;;;;;;;;;;;-8.10;99.90;;;;;;4975815;28;19926;-73